Terminal Aerodrome Forecast
Issued by NWS

Home | Current Version | Previous Version | Text Only | Print | Product List | Glossary On
Versions: 1 2 3 4 5 6 7 8 9 10 11 12 13 14 15 16 17 18 19 20 21 22 23 24 25 26 27 28 29 30 31 32 33 34 35 36 37 38
000
FTUS45 KBOU 220815 AAB
TAFAPA
TAF AMD
KAPA 220815Z 2208/2306 24009KT 1SM -SN BR VV012
     FM221000 26007KT P6SM SCT060 BKN120
     FM221600 30010KT P6SM SCT060 BKN120
     FM222000 34014G25KT P6SM VCSH SCT050 BKN070 PROB30 2221/2301
      3SM -SHSN BKN040=

USA.gov is the U.S. government's official web portal to all federal, state and local government web resources and services.